sensor_id;sensor_type;location;lat;lon;timestamp;temperature;humidity
23869;DHT22;12115;47.128;15.422;2023-05-14T00:02:17;11.40;99.90
23869;DHT22;12115;47.128;15.422;2023-05-14T00:04:44;11.40;99.90
23869;DHT22;12115;47.128;15.422;2023-05-14T00:07:12;11.40;99.90
23869;DHT22;12115;47.128;15.422;2023-05-14T00:09:39;11.40;99.90
23869;DHT22;12115;47.128;15.422;2023-05-14T00:12:06;11.40;99.90
23869;DHT22;12115;47.128;15.422;2023-05-14T00:14:34;11.40;99.90
23869;DHT22;12115;47.128;15.422;2023-05-14T00:17:01;11.40;99.90
23869;DHT22;12115;47.128;15.422;2023-05-14T00:19:29;11.40;99.90
23869;DHT22;12115;47.128;15.422;2023-05-14T00:21:56;11.40;99.90
23869;DHT22;12115;47.128;15.422;2023-05-14T00:24:23;11.40;99.90
23869;DHT22;12115;47.128;15.422;2023-05-14T00:26:50;11.40;99.90
23869;DHT22;12115;47.128;15.422;2023-05-14T00:29:18;11.40;99.90
23869;DHT22;12115;47.128;15.422;2023-05-14T00:31:45;11.40;99.90
23869;DHT22;12115;47.128;15.422;2023-05-14T00:34:12;11.40;99.90
23869;DHT22;12115;47.128;15.422;2023-05-14T00:36:39;11.40;99.90
23869;DHT22;12115;47.128;15.422;2023-05-14T00:39:07;11.40;99.90
23869;DHT22;12115;47.128;15.422;2023-05-14T00:41:34;11.40;99.90
23869;DHT22;12115;47.128;15.422;2023-05-14T00:44:01;11.40;99.90
23869;DHT22;12115;47.128;15.422;2023-05-14T00:46:28;11.40;99.90
23869;DHT22;12115;47.128;15.422;2023-05-14T00:48:57;11.40;99.90
23869;DHT22;12115;47.128;15.422;2023-05-14T00:51:24;11.40;99.90
23869;DHT22;12115;47.128;15.422;2023-05-14T00:53:52;11.40;99.90
23869;DHT22;12115;47.128;15.422;2023-05-14T00:56:19;11.40;99.90
23869;DHT22;12115;47.128;15.422;2023-05-14T00:58:47;11.40;99.90
23869;DHT22;12115;47.128;15.422;2023-05-14T01:01:14;11.40;99.90
23869;DHT22;12115;47.128;15.422;2023-05-14T01:03:43;11.40;99.90
23869;DHT22;12115;47.128;15.422;2023-05-14T01:09:24;11.40;99.90
23869;DHT22;12115;47.128;15.422;2023-05-14T01:12:07;11.40;99.90
23869;DHT22;12115;47.128;15.422;2023-05-14T01:17:54;11.40;99.90
23869;DHT22;12115;47.128;15.422;2023-05-14T01:20:23;11.40;99.90
23869;DHT22;12115;47.128;15.422;2023-05-14T01:22:50;11.50;99.90
23869;DHT22;12115;47.128;15.422;2023-05-14T01:25:18;11.50;99.90
23869;DHT22;12115;47.128;15.422;2023-05-14T01:32:57;11.40;99.90
23869;DHT22;12115;47.128;15.422;2023-05-14T01:35:30;11.50;99.90
23869;DHT22;12115;47.128;15.422;2023-05-14T01:38:01;11.40;99.90
23869;DHT22;12115;47.128;15.422;2023-05-14T01:40:31;11.50;99.90
23869;DHT22;12115;47.128;15.422;2023-05-14T01:42:59;11.50;99.90
23869;DHT22;12115;47.128;15.422;2023-05-14T01:45:29;11.50;99.90
23869;DHT22;12115;47.128;15.422;2023-05-14T01:47:57;11.50;99.90
23869;DHT22;12115;47.128;15.422;2023-05-14T01:50:24;11.40;99.90
23869;DHT22;12115;47.128;15.422;2023-05-14T01:52:52;11.40;99.90
23869;DHT22;12115;47.128;15.422;2023-05-14T01:55:23;11.40;99.90
23869;DHT22;12115;47.128;15.422;2023-05-14T01:57:51;11.30;99.90
23869;DHT22;12115;47.128;15.422;2023-05-14T02:00:19;11.30;99.90
23869;DHT22;12115;47.128;15.422;2023-05-14T02:02:47;11.30;99.90
23869;DHT22;12115;47.128;15.422;2023-05-14T02:05:15;11.20;99.90
23869;DHT22;12115;47.128;15.422;2023-05-14T02:07:42;11.20;99.90
23869;DHT22;12115;47.128;15.422;2023-05-14T02:10:09;11.20;99.90
23869;DHT22;12115;47.128;15.422;2023-05-14T02:12:37;11.20;99.90
23869;DHT22;12115;47.128;15.422;2023-05-14T02:15:05;11.20;99.90
23869;DHT22;12115;47.128;15.422;2023-05-14T02:17:32;11.10;99.90
23869;DHT22;12115;47.128;15.422;2023-05-14T02:19:59;11.20;99.90
23869;DHT22;12115;47.128;15.422;2023-05-14T02:22:26;11.10;99.90
23869;DHT22;12115;47.128;15.422;2023-05-14T02:24:54;11.10;99.90
23869;DHT22;12115;47.128;15.422;2023-05-14T02:27:21;11.10;99.90
23869;DHT22;12115;47.128;15.422;2023-05-14T02:29:48;11.10;99.90
23869;DHT22;12115;47.128;15.422;2023-05-14T02:32:15;11.00;99.90
23869;DHT22;12115;47.128;15.422;2023-05-14T02:34:42;11.10;99.90
23869;DHT22;12115;47.128;15.422;2023-05-14T02:37:10;11.10;99.90
23869;DHT22;12115;47.128;15.422;2023-05-14T02:39:37;11.00;99.90
23869;DHT22;12115;47.128;15.422;2023-05-14T02:42:05;11.00;99.90
23869;DHT22;12115;47.128;15.422;2023-05-14T02:44:32;11.00;99.90
23869;DHT22;12115;47.128;15.422;2023-05-14T02:47:00;11.00;99.90
23869;DHT22;12115;47.128;15.422;2023-05-14T02:49:27;11.00;99.90
23869;DHT22;12115;47.128;15.422;2023-05-14T02:51:54;11.10;99.90
23869;DHT22;12115;47.128;15.422;2023-05-14T02:54:21;11.00;99.90
23869;DHT22;12115;47.128;15.422;2023-05-14T02:56:49;11.10;99.90
23869;DHT22;12115;47.128;15.422;2023-05-14T02:59:16;11.00;99.90
23869;DHT22;12115;47.128;15.422;2023-05-14T03:01:44;11.00;99.90
23869;DHT22;12115;47.128;15.422;2023-05-14T03:04:11;11.00;99.90
23869;DHT22;12115;47.128;15.422;2023-05-14T03:06:39;11.00;99.90
23869;DHT22;12115;47.128;15.422;2023-05-14T03:09:06;11.00;99.90
23869;DHT22;12115;47.128;15.422;2023-05-14T03:11:33;11.00;99.90
23869;DHT22;12115;47.128;15.422;2023-05-14T03:14:01;11.00;99.90
23869;DHT22;12115;47.128;15.422;2023-05-14T03:16:28;11.00;99.90
23869;DHT22;12115;47.128;15.422;2023-05-14T03:18:55;11.00;99.90
23869;DHT22;12115;47.128;15.422;2023-05-14T03:21:23;11.00;99.90
23869;DHT22;12115;47.128;15.422;2023-05-14T03:23:51;11.00;99.90
23869;DHT22;12115;47.128;15.422;2023-05-14T03:26:19;11.00;99.90
23869;DHT22;12115;47.128;15.422;2023-05-14T03:28:47;11.00;99.90
23869;DHT22;12115;47.128;15.422;2023-05-14T03:31:14;11.00;99.90
23869;DHT22;12115;47.128;15.422;2023-05-14T03:33:42;11.00;99.90
23869;DHT22;12115;47.128;15.422;2023-05-14T03:36:09;11.00;99.90
23869;DHT22;12115;47.128;15.422;2023-05-14T03:38:36;11.00;99.90
23869;DHT22;12115;47.128;15.422;2023-05-14T03:41:03;11.00;99.90
23869;DHT22;12115;47.128;15.422;2023-05-14T03:43:31;11.00;99.90
23869;DHT22;12115;47.128;15.422;2023-05-14T03:45:58;11.00;99.90
23869;DHT22;12115;47.128;15.422;2023-05-14T03:48:26;11.00;99.90
23869;DHT22;12115;47.128;15.422;2023-05-14T03:50:53;11.00;99.90
23869;DHT22;12115;47.128;15.422;2023-05-14T03:53:20;11.00;99.90
23869;DHT22;12115;47.128;15.422;2023-05-14T03:55:48;11.00;99.90
23869;DHT22;12115;47.128;15.422;2023-05-14T03:58:24;11.10;99.90
23869;DHT22;12115;47.128;15.422;2023-05-14T04:00:52;11.10;99.90
23869;DHT22;12115;47.128;15.422;2023-05-14T04:03:19;11.10;99.90
23869;DHT22;12115;47.128;15.422;2023-05-14T04:05:50;11.00;99.90
23869;DHT22;12115;47.128;15.422;2023-05-14T04:08:18;11.00;99.90
23869;DHT22;12115;47.128;15.422;2023-05-14T04:10:45;11.00;99.90
23869;DHT22;12115;47.128;15.422;2023-05-14T04:13:12;11.00;99.90
23869;DHT22;12115;47.128;15.422;2023-05-14T04:15:40;11.10;99.90
23869;DHT22;12115;47.128;15.422;2023-05-14T04:18:07;11.10;99.90
23869;DHT22;12115;47.128;15.422;2023-05-14T04:20:35;11.10;99.90
23869;DHT22;12115;47.128;15.422;2023-05-14T04:23:03;11.10;99.90
23869;DHT22;12115;47.128;15.422;2023-05-14T04:25:30;11.10;99.90
23869;DHT22;12115;47.128;15.422;2023-05-14T04:27:57;11.10;99.90
23869;DHT22;12115;47.128;15.422;2023-05-14T04:30:25;11.00;99.90
23869;DHT22;12115;47.128;15.422;2023-05-14T04:32:52;11.00;99.90
23869;DHT22;12115;47.128;15.422;2023-05-14T04:35:19;11.10;99.90
23869;DHT22;12115;47.128;15.422;2023-05-14T04:37:50;11.10;99.90
23869;DHT22;12115;47.128;15.422;2023-05-14T04:40:18;11.00;99.90
23869;DHT22;12115;47.128;15.422;2023-05-14T04:42:45;11.10;99.90
23869;DHT22;12115;47.128;15.422;2023-05-14T04:45:12;11.00;99.90
23869;DHT22;12115;47.128;15.422;2023-05-14T04:47:40;11.00;99.90
23869;DHT22;12115;47.128;15.422;2023-05-14T04:50:08;11.10;99.90
23869;DHT22;12115;47.128;15.422;2023-05-14T04:52:36;11.10;99.90
23869;DHT22;12115;47.128;15.422;2023-05-14T04:55:04;11.10;99.90
23869;DHT22;12115;47.128;15.422;2023-05-14T04:57:32;11.10;99.90
23869;DHT22;12115;47.128;15.422;2023-05-14T04:59:59;11.10;99.90
23869;DHT22;12115;47.128;15.422;2023-05-14T05:02:26;11.10;99.90
23869;DHT22;12115;47.128;15.422;2023-05-14T05:04:53;11.10;99.90
23869;DHT22;12115;47.128;15.422;2023-05-14T05:07:20;11.10;99.90
23869;DHT22;12115;47.128;15.422;2023-05-14T05:09:48;11.10;99.90
23869;DHT22;12115;47.128;15.422;2023-05-14T05:12:15;11.10;99.90
23869;DHT22;12115;47.128;15.422;2023-05-14T05:14:43;11.10;99.90
23869;DHT22;12115;47.128;15.422;2023-05-14T05:17:10;11.10;99.90
23869;DHT22;12115;47.128;15.422;2023-05-14T05:19:37;11.20;99.90
23869;DHT22;12115;47.128;15.422;2023-05-14T05:22:10;11.20;99.90
23869;DHT22;12115;47.128;15.422;2023-05-14T05:24:38;11.10;99.90
23869;DHT22;12115;47.128;15.422;2023-05-14T05:27:05;11.20;99.90
23869;DHT22;12115;47.128;15.422;2023-05-14T05:29:35;11.20;99.90
23869;DHT22;12115;47.128;15.422;2023-05-14T05:32:02;11.20;99.90
23869;DHT22;12115;47.128;15.422;2023-05-14T05:34:29;11.30;99.90
23869;DHT22;12115;47.128;15.422;2023-05-14T05:36:57;11.30;99.90
23869;DHT22;12115;47.128;15.422;2023-05-14T05:39:24;11.30;99.90
23869;DHT22;12115;47.128;15.422;2023-05-14T05:41:52;11.30;99.90
23869;DHT22;12115;47.128;15.422;2023-05-14T05:44:19;11.30;99.90
23869;DHT22;12115;47.128;15.422;2023-05-14T05:46:46;11.40;99.90
23869;DHT22;12115;47.128;15.422;2023-05-14T05:49:13;11.30;99.90
23869;DHT22;12115;47.128;15.422;2023-05-14T05:51:41;11.40;99.90
23869;DHT22;12115;47.128;15.422;2023-05-14T05:54:08;11.40;99.90
23869;DHT22;12115;47.128;15.422;2023-05-14T05:56:35;11.40;99.90
23869;DHT22;12115;47.128;15.422;2023-05-14T05:59:02;11.40;99.90
23869;DHT22;12115;47.128;15.422;2023-05-14T06:01:30;11.40;99.90
23869;DHT22;12115;47.128;15.422;2023-05-14T06:03:57;11.40;99.90
23869;DHT22;12115;47.128;15.422;2023-05-14T06:06:25;11.40;99.90
23869;DHT22;12115;47.128;15.422;2023-05-14T06:08:52;11.40;99.90
23869;DHT22;12115;47.128;15.422;2023-05-14T06:11:19;11.40;99.90
23869;DHT22;12115;47.128;15.422;2023-05-14T06:13:47;11.40;99.90
23869;DHT22;12115;47.128;15.422;2023-05-14T06:16:15;11.40;99.90
23869;DHT22;12115;47.128;15.422;2023-05-14T06:18:42;11.40;99.90
23869;DHT22;12115;47.128;15.422;2023-05-14T06:21:09;11.40;99.90
23869;DHT22;12115;47.128;15.422;2023-05-14T06:23:36;11.40;99.90
23869;DHT22;12115;47.128;15.422;2023-05-14T06:26:03;11.40;99.90
23869;DHT22;12115;47.128;15.422;2023-05-14T06:28:31;11.40;99.90
23869;DHT22;12115;47.128;15.422;2023-05-14T06:30:58;11.40;99.90
23869;DHT22;12115;47.128;15.422;2023-05-14T06:33:25;11.40;99.90
23869;DHT22;12115;47.128;15.422;2023-05-14T06:36:02;11.50;99.90
23869;DHT22;12115;47.128;15.422;2023-05-14T06:38:29;11.50;99.90
23869;DHT22;12115;47.128;15.422;2023-05-14T06:40:56;11.50;99.90
23869;DHT22;12115;47.128;15.422;2023-05-14T06:43:32;11.50;99.90
23869;DHT22;12115;47.128;15.422;2023-05-14T06:45:59;11.50;99.90
23869;DHT22;12115;47.128;15.422;2023-05-14T06:48:27;11.50;99.90
23869;DHT22;12115;47.128;15.422;2023-05-14T06:50:55;11.50;99.90
23869;DHT22;12115;47.128;15.422;2023-05-14T06:53:22;11.60;99.90
23869;DHT22;12115;47.128;15.422;2023-05-14T06:55:50;11.60;99.90
23869;DHT22;12115;47.128;15.422;2023-05-14T06:58:17;11.60;99.90
23869;DHT22;12115;47.128;15.422;2023-05-14T07:00:44;11.60;99.90
23869;DHT22;12115;47.128;15.422;2023-05-14T07:03:11;11.60;99.90
23869;DHT22;12115;47.128;15.422;2023-05-14T07:05:39;11.60;99.90
23869;DHT22;12115;47.128;15.422;2023-05-14T07:08:07;11.60;99.90
23869;DHT22;12115;47.128;15.422;2023-05-14T07:10:34;11.60;99.90
23869;DHT22;12115;47.128;15.422;2023-05-14T07:13:01;11.60;99.90
23869;DHT22;12115;47.128;15.422;2023-05-14T07:15:29;11.70;99.90
23869;DHT22;12115;47.128;15.422;2023-05-14T07:17:56;11.70;99.90
23869;DHT22;12115;47.128;15.422;2023-05-14T07:20:24;11.70;99.90
23869;DHT22;12115;47.128;15.422;2023-05-14T07:22:52;11.70;99.90
23869;DHT22;12115;47.128;15.422;2023-05-14T07:25:19;11.60;99.90
23869;DHT22;12115;47.128;15.422;2023-05-14T07:27:47;11.60;99.90
23869;DHT22;12115;47.128;15.422;2023-05-14T07:30:14;11.60;99.90
23869;DHT22;12115;47.128;15.422;2023-05-14T07:32:41;11.50;99.90
23869;DHT22;12115;47.128;15.422;2023-05-14T07:35:46;11.50;99.90
23869;DHT22;12115;47.128;15.422;2023-05-14T07:38:14;11.50;99.90
23869;DHT22;12115;47.128;15.422;2023-05-14T07:40:41;11.50;99.90
23869;DHT22;12115;47.128;15.422;2023-05-14T07:43:09;11.60;99.90
23869;DHT22;12115;47.128;15.422;2023-05-14T07:45:37;11.50;99.90
23869;DHT22;12115;47.128;15.422;2023-05-14T07:48:07;11.50;99.90
23869;DHT22;12115;47.128;15.422;2023-05-14T07:50:35;11.50;99.90
23869;DHT22;12115;47.128;15.422;2023-05-14T07:53:03;11.60;99.90
23869;DHT22;12115;47.128;15.422;2023-05-14T07:55:30;11.60;99.90
23869;DHT22;12115;47.128;15.422;2023-05-14T07:57:57;11.60;99.90
23869;DHT22;12115;47.128;15.422;2023-05-14T08:00:24;11.60;99.90
23869;DHT22;12115;47.128;15.422;2023-05-14T08:02:53;11.60;99.90
23869;DHT22;12115;47.128;15.422;2023-05-14T08:05:20;11.60;99.90
23869;DHT22;12115;47.128;15.422;2023-05-14T08:07:48;11.60;99.90
23869;DHT22;12115;47.128;15.422;2023-05-14T08:10:15;11.60;99.90
23869;DHT22;12115;47.128;15.422;2023-05-14T08:12:42;11.60;99.90
23869;DHT22;12115;47.128;15.422;2023-05-14T08:15:09;11.60;99.90
23869;DHT22;12115;47.128;15.422;2023-05-14T08:17:36;11.60;99.90
23869;DHT22;12115;47.128;15.422;2023-05-14T08:20:05;11.60;99.90
23869;DHT22;12115;47.128;15.422;2023-05-14T08:22:32;11.60;99.90
23869;DHT22;12115;47.128;15.422;2023-05-14T08:25:00;11.60;99.90
23869;DHT22;12115;47.128;15.422;2023-05-14T08:27:35;11.60;99.90
23869;DHT22;12115;47.128;15.422;2023-05-14T08:30:03;11.60;99.90
23869;DHT22;12115;47.128;15.422;2023-05-14T08:32:30;11.60;99.90
23869;DHT22;12115;47.128;15.422;2023-05-14T08:34:58;11.60;99.90
23869;DHT22;12115;47.128;15.422;2023-05-14T08:37:25;11.60;99.90
23869;DHT22;12115;47.128;15.422;2023-05-14T08:39:53;11.50;99.90
23869;DHT22;12115;47.128;15.422;2023-05-14T08:42:20;11.50;99.90
23869;DHT22;12115;47.128;15.422;2023-05-14T08:45:00;11.60;99.90
23869;DHT22;12115;47.128;15.422;2023-05-14T08:47:29;11.60;99.90
23869;DHT22;12115;47.128;15.422;2023-05-14T08:58:36;11.60;99.90
23869;DHT22;12115;47.128;15.422;2023-05-14T09:01:03;11.60;99.90
23869;DHT22;12115;47.128;15.422;2023-05-14T09:03:30;11.60;99.90
23869;DHT22;12115;47.128;15.422;2023-05-14T09:05:59;11.60;99.90
23869;DHT22;12115;47.128;15.422;2023-05-14T09:08:26;11.60;99.90
23869;DHT22;12115;47.128;15.422;2023-05-14T09:10:54;11.60;99.90
23869;DHT22;12115;47.128;15.422;2023-05-14T09:13:21;11.60;99.90
23869;DHT22;12115;47.128;15.422;2023-05-14T09:15:49;11.60;99.90
23869;DHT22;12115;47.128;15.422;2023-05-14T09:18:17;11.70;99.90
23869;DHT22;12115;47.128;15.422;2023-05-14T09:20:46;11.70;99.90
23869;DHT22;12115;47.128;15.422;2023-05-14T09:23:13;11.60;99.90
23869;DHT22;12115;47.128;15.422;2023-05-14T09:25:41;11.60;99.90
23869;DHT22;12115;47.128;15.422;2023-05-14T09:28:08;11.60;99.90
23869;DHT22;12115;47.128;15.422;2023-05-14T09:30:36;11.50;99.90
23869;DHT22;12115;47.128;15.422;2023-05-14T09:33:03;11.50;99.90
23869;DHT22;12115;47.128;15.422;2023-05-14T09:35:33;11.50;99.90
23869;DHT22;12115;47.128;15.422;2023-05-14T09:38:00;11.50;99.90
23869;DHT22;12115;47.128;15.422;2023-05-14T09:40:28;11.50;99.90
23869;DHT22;12115;47.128;15.422;2023-05-14T09:42:55;11.50;99.90
23869;DHT22;12115;47.128;15.422;2023-05-14T09:45:22;11.50;99.90
23869;DHT22;12115;47.128;15.422;2023-05-14T09:47:50;11.50;99.90
23869;DHT22;12115;47.128;15.422;2023-05-14T09:50:22;11.50;99.90
23869;DHT22;12115;47.128;15.422;2023-05-14T09:52:49;11.50;99.90
23869;DHT22;12115;47.128;15.422;2023-05-14T09:55:17;11.60;99.90
23869;DHT22;12115;47.128;15.422;2023-05-14T09:57:46;11.70;99.90
23869;DHT22;12115;47.128;15.422;2023-05-14T10:00:13;11.70;99.90
23869;DHT22;12115;47.128;15.422;2023-05-14T10:02:43;11.70;99.90
23869;DHT22;12115;47.128;15.422;2023-05-14T10:05:11;11.70;99.90
23869;DHT22;12115;47.128;15.422;2023-05-14T10:07:41;11.80;99.90
23869;DHT22;12115;47.128;15.422;2023-05-14T10:10:14;11.80;99.90
23869;DHT22;12115;47.128;15.422;2023-05-14T10:13:08;11.80;99.90
23869;DHT22;12115;47.128;15.422;2023-05-14T10:15:51;11.80;99.90
23869;DHT22;12115;47.128;15.422;2023-05-14T10:18:22;11.90;99.90
23869;DHT22;12115;47.128;15.422;2023-05-14T10:21:03;11.90;99.90
23869;DHT22;12115;47.128;15.422;2023-05-14T10:23:30;12.00;99.90
23869;DHT22;12115;47.128;15.422;2023-05-14T10:25:58;12.10;99.90
23869;DHT22;12115;47.128;15.422;2023-05-14T10:28:26;12.10;99.90
23869;DHT22;12115;47.128;15.422;2023-05-14T10:30:54;12.20;99.90
23869;DHT22;12115;47.128;15.422;2023-05-14T10:33:21;12.20;99.90
23869;DHT22;12115;47.128;15.422;2023-05-14T10:36:08;12.30;99.90
23869;DHT22;12115;47.128;15.422;2023-05-14T10:38:37;12.20;99.90
23869;DHT22;12115;47.128;15.422;2023-05-14T10:41:14;12.20;99.90
23869;DHT22;12115;47.128;15.422;2023-05-14T10:43:43;12.30;99.90
23869;DHT22;12115;47.128;15.422;2023-05-14T10:46:12;12.10;99.90
23869;DHT22;12115;47.128;15.422;2023-05-14T10:48:57;12.10;99.90
23869;DHT22;12115;47.128;15.422;2023-05-14T10:51:25;12.20;99.90
23869;DHT22;12115;47.128;15.422;2023-05-14T10:53:52;12.10;99.90
23869;DHT22;12115;47.128;15.422;2023-05-14T10:56:19;12.10;99.90
23869;DHT22;12115;47.128;15.422;2023-05-14T10:58:49;12.20;99.90
23869;DHT22;12115;47.128;15.422;2023-05-14T11:01:16;12.20;99.90
23869;DHT22;12115;47.128;15.422;2023-05-14T11:03:45;12.20;99.90
23869;DHT22;12115;47.128;15.422;2023-05-14T11:06:14;12.00;99.90
23869;DHT22;12115;47.128;15.422;2023-05-14T11:08:42;12.00;99.90
23869;DHT22;12115;47.128;15.422;2023-05-14T11:11:10;12.00;99.90
23869;DHT22;12115;47.128;15.422;2023-05-14T11:13:38;12.00;99.90
23869;DHT22;12115;47.128;15.422;2023-05-14T11:16:07;11.90;99.90
23869;DHT22;12115;47.128;15.422;2023-05-14T11:18:59;12.00;99.90
23869;DHT22;12115;47.128;15.422;2023-05-14T11:21:28;12.00;99.90
23869;DHT22;12115;47.128;15.422;2023-05-14T11:23:56;12.00;99.90
23869;DHT22;12115;47.128;15.422;2023-05-14T11:26:23;12.00;99.90
23869;DHT22;12115;47.128;15.422;2023-05-14T11:28:51;12.00;99.90
23869;DHT22;12115;47.128;15.422;2023-05-14T11:31:18;12.00;99.90
23869;DHT22;12115;47.128;15.422;2023-05-14T11:33:46;11.90;99.90
23869;DHT22;12115;47.128;15.422;2023-05-14T11:36:13;11.90;99.90
23869;DHT22;12115;47.128;15.422;2023-05-14T11:38:48;11.80;99.90
23869;DHT22;12115;47.128;15.422;2023-05-14T11:41:17;11.80;99.90
23869;DHT22;12115;47.128;15.422;2023-05-14T11:43:47;11.70;99.90
23869;DHT22;12115;47.128;15.422;2023-05-14T11:46:16;11.90;99.90
23869;DHT22;12115;47.128;15.422;2023-05-14T11:48:44;11.90;99.90
23869;DHT22;12115;47.128;15.422;2023-05-14T11:51:12;11.90;99.90
23869;DHT22;12115;47.128;15.422;2023-05-14T11:53:39;12.00;99.90
23869;DHT22;12115;47.128;15.422;2023-05-14T11:56:06;12.00;99.90
23869;DHT22;12115;47.128;15.422;2023-05-14T11:58:35;12.00;99.90
23869;DHT22;12115;47.128;15.422;2023-05-14T12:01:03;12.00;99.90
23869;DHT22;12115;47.128;15.422;2023-05-14T12:03:30;11.90;99.90
23869;DHT22;12115;47.128;15.422;2023-05-14T12:05:59;11.90;99.90
23869;DHT22;12115;47.128;15.422;2023-05-14T12:08:28;11.80;99.90
23869;DHT22;12115;47.128;15.422;2023-05-14T12:10:58;11.80;99.90
23869;DHT22;12115;47.128;15.422;2023-05-14T12:13:26;11.90;99.90
23869;DHT22;12115;47.128;15.422;2023-05-14T12:15:58;11.80;99.90
23869;DHT22;12115;47.128;15.422;2023-05-14T12:18:29;11.80;99.90
23869;DHT22;12115;47.128;15.422;2023-05-14T12:21:04;11.80;99.90
23869;DHT22;12115;47.128;15.422;2023-05-14T12:23:34;11.80;99.90
23869;DHT22;12115;47.128;15.422;2023-05-14T12:26:03;11.70;99.90
23869;DHT22;12115;47.128;15.422;2023-05-14T12:28:34;11.70;99.90
23869;DHT22;12115;47.128;15.422;2023-05-14T12:31:04;11.80;99.90
23869;DHT22;12115;47.128;15.422;2023-05-14T12:33:32;11.70;99.90
23869;DHT22;12115;47.128;15.422;2023-05-14T12:35:59;11.70;99.90
23869;DHT22;12115;47.128;15.422;2023-05-14T12:38:47;11.70;99.90
23869;DHT22;12115;47.128;15.422;2023-05-14T12:41:14;11.70;99.90
23869;DHT22;12115;47.128;15.422;2023-05-14T12:43:42;11.70;99.90
23869;DHT22;12115;47.128;15.422;2023-05-14T12:46:10;11.70;99.90
23869;DHT22;12115;47.128;15.422;2023-05-14T12:48:37;11.60;99.90
23869;DHT22;12115;47.128;15.422;2023-05-14T12:51:04;11.50;99.90
23869;DHT22;12115;47.128;15.422;2023-05-14T12:53:33;11.60;99.90
23869;DHT22;12115;47.128;15.422;2023-05-14T12:56:01;11.50;99.90
23869;DHT22;12115;47.128;15.422;2023-05-14T12:58:28;11.50;99.90
23869;DHT22;12115;47.128;15.422;2023-05-14T13:00:56;11.50;99.90
23869;DHT22;12115;47.128;15.422;2023-05-14T13:03:23;11.50;99.90
23869;DHT22;12115;47.128;15.422;2023-05-14T13:05:52;11.50;99.90
23869;DHT22;12115;47.128;15.422;2023-05-14T13:08:23;11.50;99.90
23869;DHT22;12115;47.128;15.422;2023-05-14T13:10:55;11.60;99.90
23869;DHT22;12115;47.128;15.422;2023-05-14T13:13:23;11.50;99.90
23869;DHT22;12115;47.128;15.422;2023-05-14T13:15:50;11.50;99.90
23869;DHT22;12115;47.128;15.422;2023-05-14T13:18:19;11.50;99.90
23869;DHT22;12115;47.128;15.422;2023-05-14T13:20:46;11.40;99.90
23869;DHT22;12115;47.128;15.422;2023-05-14T13:23:14;11.40;99.90
23869;DHT22;12115;47.128;15.422;2023-05-14T13:25:41;11.40;99.90
23869;DHT22;12115;47.128;15.422;2023-05-14T13:28:08;11.30;99.90
23869;DHT22;12115;47.128;15.422;2023-05-14T13:30:36;11.40;99.90
23869;DHT22;12115;47.128;15.422;2023-05-14T13:33:05;11.40;99.90
23869;DHT22;12115;47.128;15.422;2023-05-14T13:35:32;11.30;99.90
23869;DHT22;12115;47.128;15.422;2023-05-14T13:38:00;11.40;99.90
23869;DHT22;12115;47.128;15.422;2023-05-14T13:40:28;11.40;99.90
23869;DHT22;12115;47.128;15.422;2023-05-14T13:42:55;11.30;99.90
23869;DHT22;12115;47.128;15.422;2023-05-14T13:45:22;11.30;99.90
23869;DHT22;12115;47.128;15.422;2023-05-14T13:47:50;11.30;99.90
23869;DHT22;12115;47.128;15.422;2023-05-14T13:50:19;11.20;99.90
23869;DHT22;12115;47.128;15.422;2023-05-14T13:52:47;11.20;99.90
23869;DHT22;12115;47.128;15.422;2023-05-14T13:55:15;11.20;99.90
23869;DHT22;12115;47.128;15.422;2023-05-14T13:57:43;11.30;99.90
23869;DHT22;12115;47.128;15.422;2023-05-14T14:00:11;11.30;99.90
23869;DHT22;12115;47.128;15.422;2023-05-14T14:02:39;11.30;99.90
23869;DHT22;12115;47.128;15.422;2023-05-14T14:05:07;11.30;99.90
23869;DHT22;12115;47.128;15.422;2023-05-14T14:07:34;11.30;99.90
23869;DHT22;12115;47.128;15.422;2023-05-14T14:10:02;11.40;99.90
23869;DHT22;12115;47.128;15.422;2023-05-14T14:12:30;11.40;99.90
23869;DHT22;12115;47.128;15.422;2023-05-14T14:14:58;11.40;99.90
23869;DHT22;12115;47.128;15.422;2023-05-14T14:17:25;11.40;99.90
23869;DHT22;12115;47.128;15.422;2023-05-14T14:19:53;11.40;99.90
23869;DHT22;12115;47.128;15.422;2023-05-14T14:22:20;11.50;99.90
23869;DHT22;12115;47.128;15.422;2023-05-14T14:24:47;11.50;99.90
23869;DHT22;12115;47.128;15.422;2023-05-14T14:27:15;11.50;99.90
23869;DHT22;12115;47.128;15.422;2023-05-14T14:29:42;11.60;99.90
23869;DHT22;12115;47.128;15.422;2023-05-14T14:32:09;11.60;99.90
23869;DHT22;12115;47.128;15.422;2023-05-14T14:34:37;11.60;99.90
23869;DHT22;12115;47.128;15.422;2023-05-14T14:37:05;11.70;99.90
23869;DHT22;12115;47.128;15.422;2023-05-14T14:39:32;11.60;99.90
23869;DHT22;12115;47.128;15.422;2023-05-14T14:42:00;11.60;99.90
23869;DHT22;12115;47.128;15.422;2023-05-14T14:44:27;11.70;99.90
23869;DHT22;12115;47.128;15.422;2023-05-14T14:46:55;11.70;99.90
23869;DHT22;12115;47.128;15.422;2023-05-14T14:49:23;11.70;99.90
23869;DHT22;12115;47.128;15.422;2023-05-14T14:51:50;11.70;99.90
23869;DHT22;12115;47.128;15.422;2023-05-14T14:54:18;11.70;99.90
23869;DHT22;12115;47.128;15.422;2023-05-14T14:56:45;11.70;99.90
23869;DHT22;12115;47.128;15.422;2023-05-14T14:59:15;11.70;99.90
23869;DHT22;12115;47.128;15.422;2023-05-14T15:01:43;11.70;99.90
23869;DHT22;12115;47.128;15.422;2023-05-14T15:04:11;11.80;99.90
23869;DHT22;12115;47.128;15.422;2023-05-14T15:06:39;11.80;99.90
23869;DHT22;12115;47.128;15.422;2023-05-14T15:09:07;11.80;99.90
23869;DHT22;12115;47.128;15.422;2023-05-14T15:11:35;11.80;99.90
23869;DHT22;12115;47.128;15.422;2023-05-14T15:14:03;11.90;99.90
23869;DHT22;12115;47.128;15.422;2023-05-14T15:16:31;11.80;99.90
23869;DHT22;12115;47.128;15.422;2023-05-14T15:18:59;11.80;99.90
23869;DHT22;12115;47.128;15.422;2023-05-14T15:21:27;11.80;99.90
23869;DHT22;12115;47.128;15.422;2023-05-14T15:23:55;11.80;99.90
23869;DHT22;12115;47.128;15.422;2023-05-14T15:26:22;11.70;99.90
23869;DHT22;12115;47.128;15.422;2023-05-14T15:28:50;11.80;99.90
23869;DHT22;12115;47.128;15.422;2023-05-14T15:31:18;11.70;99.90
23869;DHT22;12115;47.128;15.422;2023-05-14T15:33:46;11.80;99.90
23869;DHT22;12115;47.128;15.422;2023-05-14T15:36:14;11.80;99.90
23869;DHT22;12115;47.128;15.422;2023-05-14T15:38:42;11.80;99.90
23869;DHT22;12115;47.128;15.422;2023-05-14T15:41:10;11.80;99.90
23869;DHT22;12115;47.128;15.422;2023-05-14T15:43:38;11.90;99.90